createdAt,value
2022-09-25T00:02:54.297Z,44.5
2022-09-25T00:08:46.018Z,46.8
2022-09-25T00:14:36.514Z,57.3
2022-09-25T00:20:27.508Z,81
2022-09-25T00:26:18.455Z,107.6
2022-09-25T00:32:09.500Z,115.8
2022-09-25T00:38:01.885Z,129.1
2022-09-25T00:43:53.332Z,136.9
2022-09-25T00:49:44.579Z,132
2022-09-25T00:55:35.494Z,143.2
2022-09-25T01:01:28.117Z,138.8
2022-09-25T01:07:18.638Z,150.5
2022-09-25T01:13:09.968Z,149.2
2022-09-25T01:19:00.753Z,150.5
2022-09-25T01:24:52.220Z,147.9
2022-09-25T01:30:43.987Z,148.3
2022-09-25T01:36:34.877Z,139.9
2022-09-25T01:42:25.857Z,139.4
2022-09-25T01:48:16.978Z,130.9
2022-09-25T01:54:05.345Z,130.4
2022-09-25T01:59:57.347Z,135.8
2022-09-25T02:05:48.824Z,134.7
2022-09-25T02:11:37.169Z,141.8
2022-09-25T02:17:26.423Z,142.1
2022-09-25T02:23:17.355Z,143.3
2022-09-25T02:29:07.324Z,148.3
2022-09-25T02:34:59.735Z,147.9
2022-09-25T02:40:51.991Z,145.4
2022-09-25T02:46:42.538Z,151.1
2022-09-25T02:52:33.308Z,148.5
2022-09-25T02:58:26.201Z,151
2022-09-25T03:04:17.608Z,144.3
2022-09-25T03:10:08.527Z,144.5
2022-09-25T03:16:00.692Z,144.2
2022-09-25T03:21:52.203Z,146.2
2022-09-25T03:27:44.234Z,144
2022-09-25T03:33:35.710Z,148.4
2022-09-25T03:39:26.344Z,143.2
2022-09-25T03:45:17.408Z,154.5
2022-09-25T03:51:08.580Z,154
2022-09-25T03:57:01.169Z,154.6
2022-09-25T04:02:52.801Z,150.7
2022-09-25T04:08:45.381Z,145.8
2022-09-25T04:14:36.519Z,142.6
2022-09-25T04:20:26.970Z,139.1
2022-09-25T04:26:17.948Z,140.4
2022-09-25T04:33:14.188Z,123.2
2022-09-25T04:39:04.611Z,132.7
2022-09-25T04:44:55.610Z,132.3
2022-09-25T04:50:47.425Z,127.9
2022-09-25T05:10:49.087Z,149
2022-09-25T09:56:45.034Z,22.6
2022-09-25T10:37:53.159Z,15.8
2022-09-25T11:41:23.986Z,15.5
2022-09-25T11:47:14.864Z,10.3
2022-09-25T12:40:33.952Z,7.2
2022-09-25T13:06:53.283Z,5.5
2022-09-25T13:13:16.734Z,6.4
2022-09-25T13:19:19.862Z,6.2
2022-09-25T13:32:16.581Z,7.8
2022-09-25T13:38:24.021Z,6.9
2022-09-25T13:44:24.432Z,5.6
2022-09-25T13:50:28.930Z,5.1
2022-09-25T13:56:26.487Z,4.5
2022-09-25T14:02:14.238Z,4
2022-09-25T14:08:25.152Z,4.6
2022-09-25T14:14:19.965Z,7.4
2022-09-25T14:20:10.778Z,14.1
2022-09-25T14:26:08.896Z,32.1
2022-09-25T14:39:05.064Z,5.3
2022-09-25T14:45:38.075Z,5.3
2022-09-25T14:51:34.983Z,6.1
2022-09-25T14:57:29.730Z,6.6
2022-09-25T15:03:19.535Z,6.9
2022-09-25T15:09:10.638Z,5.7
2022-09-25T15:15:02.041Z,5
2022-09-25T15:20:52.914Z,7.7
2022-09-25T15:26:43.960Z,6.6
2022-09-25T15:32:34.267Z,7.3
2022-09-25T15:38:24.507Z,6.2
2022-09-25T15:44:15.088Z,7.8
2022-09-25T15:50:10.617Z,6.3
2022-09-25T15:56:00.760Z,6.5
2022-09-25T16:01:52.501Z,7
2022-09-25T16:07:44.570Z,7.3
2022-09-25T16:13:39.695Z,5.9
2022-09-25T16:19:30.671Z,6.8
2022-09-25T16:25:21.650Z,6.2
2022-09-25T16:31:12.416Z,6.3
2022-09-25T16:37:03.812Z,5
2022-09-25T16:42:54.661Z,6.7
2022-09-25T16:48:44.776Z,7.2
2022-09-25T16:54:35.463Z,5.1
2022-09-25T17:00:26.083Z,8.4
2022-09-25T17:06:16.816Z,7.5
2022-09-25T17:12:07.501Z,5.9
2022-09-25T17:17:57.730Z,8.3
2022-09-25T17:23:48.567Z,6.7
2022-09-25T17:29:38.498Z,6.7
2022-09-25T17:35:29.309Z,7.5
2022-09-25T17:41:18.804Z,7.7
2022-09-25T17:47:09.346Z,9.2
2022-09-25T17:52:59.181Z,6.2
2022-09-25T17:58:49.577Z,7.4
2022-09-25T18:04:40.551Z,8.7
2022-09-25T18:10:31.185Z,10.8
2022-09-25T18:16:21.426Z,9
2022-09-25T18:22:11.298Z,10
2022-09-25T18:28:01.470Z,13.3
2022-09-25T18:33:52.264Z,8.8
2022-09-25T18:39:42.647Z,7.6
2022-09-25T18:45:33.112Z,7.8
2022-09-25T18:51:22.723Z,9.7
2022-09-25T18:57:12.551Z,9.9
2022-09-25T19:03:03.636Z,6.7
2022-09-25T19:08:56.094Z,6.1
2022-09-25T19:14:46.574Z,6.5
2022-09-25T19:20:35.620Z,9.7
2022-09-25T19:26:24.753Z,7.2
2022-09-25T19:32:16.417Z,8.2
2022-09-25T19:38:10.412Z,7.6
2022-09-25T19:44:01.256Z,9.2
2022-09-25T19:49:54.986Z,9.1
2022-09-25T19:55:47.002Z,7.5
2022-09-25T20:01:38.887Z,6.4
2022-09-25T20:07:29.999Z,9.8
2022-09-25T20:13:21.748Z,9.5
2022-09-25T20:19:13.296Z,8.9
2022-09-25T20:25:03.458Z,18.3
2022-09-25T20:30:54.325Z,18.6
2022-09-25T20:36:43.705Z,22.5
2022-09-25T20:42:34.169Z,22.7
2022-09-25T20:48:24.295Z,16.2
2022-09-25T20:54:15.426Z,11.8
2022-09-25T21:00:05.621Z,13.6
2022-09-25T21:05:56.436Z,14.9
2022-09-25T21:11:46.594Z,18.1
2022-09-25T21:17:39.084Z,22.8
2022-09-25T21:23:30.084Z,13
2022-09-25T21:29:21.335Z,10
2022-09-25T21:35:13.184Z,8
2022-09-25T21:41:04.686Z,8.9
2022-09-25T21:46:55.604Z,9.4
2022-09-25T21:52:48.080Z,11.9
2022-09-25T21:58:38.585Z,12.2
2022-09-25T22:04:29.242Z,7
2022-09-25T22:10:20.187Z,14.9
2022-09-25T22:16:12.438Z,14.8
2022-09-25T22:22:03.825Z,13.5
2022-09-25T22:27:55.518Z,8.3
2022-09-25T22:33:48.568Z,7.5
2022-09-25T22:39:39.195Z,8.6
2022-09-25T22:45:31.845Z,11.1
2022-09-25T22:51:24.799Z,10.2
2022-09-25T22:57:15.801Z,9.3
2022-09-25T23:03:06.824Z,10.6
2022-09-25T23:08:56.769Z,8.5
2022-09-25T23:14:47.516Z,8.8
2022-09-25T23:20:39.592Z,7.6
2022-09-25T23:26:31.569Z,7.4
2022-09-25T23:32:22.300Z,9.3
2022-09-25T23:38:11.247Z,7.8
2022-09-25T23:44:02.182Z,8.7
2022-09-25T23:49:52.846Z,7.8
2022-09-25T23:55:44.949Z,9.7
